Terminal Aerodrome Forecast
Issued by NWS Charleston, WV

Home | Current Version | Previous Version | Text Only | Print | Product List | Glossary On
Versions: 1 2 3 4 5 6 7 8 9 10 11 12 13 14 15 16 17 18 19 20 21
000
FTUS41 KRLX 251700
TAFBKW
TAF
KBKW 251740Z 2518/2618 27010G16KT P6SM SCT250
     FM252000 29008KT P6SM SCT250
     FM260800 08004KT 5SM -RASN BR OVC025
     FM261000 06004KT 1SM -SN BR OVC008
     FM261500 33004KT 5SM -SN BR OVC015=

USA.gov is the U.S. government's official web portal to all federal, state and local government web resources and services.